Yellowstone National Park, WY

3:43 AM MDT on May 29, 2015 (GMT -0600)
Yellowstone | | Change Station
CLOSE
Current Station
Airport
Location: Yellowstone,
Elevation: 7835 ft
Nearby Weather Stations

Elev 7835 ft 44.54 °N, 110.42 °W | Updated 47 minutes ago

Overcast
Overcast
32 °F
Feels Like 29 °F
N
4
Wind Variable Wind from NNW
Gusts mph

Today
High -- | Low -- °F
--% Chance of Precip.
Yesterday
High -- | Low -- °F
Precip. -- in
5:41 AM 8:56 PM
Waxing Gibbous, 82% visible
Pressure 30.29 in
Visibility -9999.0 miles
Clouds
Windchill 29 °F
Dew Point 31 °F
Humidity 96%
Rainfall 0.00 in
Snow Depth Not available.
UV Not available.
Pollen 6.60 out of 12
Air Quality Not available.
Flu Activity Sporadic
METAR KP60 290856Z AUTO 33003KT 00/M01 A3033 RMK AO1 SLP255 T00001006 53001

More Conditions Fewer Conditions

Pressure 30.29 in
Visibility -9999.0 miles
Clouds
Windchill 29 °F
Dew Point 31 °F
Humidity 96%
Rainfall 0.00 in
Snow Depth Not available.
UV Not available.
Pollen 6.60 out of 12
Air Quality Not available.
Flu Activity Sporadic
METAR KP60 290856Z AUTO 33003KT 00/M01 A3033 RMK AO1 SLP255 T00001006 53001

More Conditions Fewer Conditions

10-Day Weather Forecast

Almanac

Astronomy

May. 29, 2015 Rise Set
Actual Time
Civil Twilight
Nautical Twilight
Astronomical Twilight
Moon
Length of Visible Light
Length of Day
Tomorrow will be .
, % of the Moon is Illuminated

Today's Extremes

State Highs State Lows

Community

WunderPhotos

Upload Photos

1,825,227 photos uploaded!

WunderBlogs® & News

Nearby

Air Quality

  Air Quality AQ Index Pollutant
Not available.

Snow Depth

Station Depth Elevation

Earthquake Activity

City Distance Mag. Time & Date
Minimum magnitude displayed is 2.5.

Coastal Water Temperatures

Place Temperature

Stations

Nearby Weather Stations

Station Location Temp. Windchill Dew Point Humidity Wind Precip. Elev Updated Type